Time;durP1;ratioP1;P1;durP2;ratioP2;P2;SDS_P1;SDS_P2;PMS_P1;PMS_P2;Temp;Humidity;BMP_temperature;BMP_pressure;BME280_temperature;BME280_humidity;BME280_pressure;Samples;Min_cycle;Max_cycle;Signal;HPM_P1;HPM_P2
2022/01/10 00:04:44;;;;;;;3.63;1.73;;;16.50;78.20;;;;;;10455895;28;20052;-80
2022/01/10 00:09:46;;;;;;;3.78;1.50;;;16.60;78.20;;;;;;10457605;28;20068;-79
2022/01/10 00:14:47;;;;;;;2.45;1.30;;;16.50;78.20;;;;;;10456403;28;20049;-79
2022/01/10 00:19:49;;;;;;;2.35;1.30;;;16.50;78.20;;;;;;10452702;28;20049;-80
2022/01/10 00:24:50;;;;;;;2.83;1.40;;;16.50;78.20;;;;;;10456402;28;20037;-80
2022/01/10 00:29:51;;;;;;;2.25;1.30;;;16.50;78.20;;;;;;10454956;28;20087;-80
2022/01/10 00:34:53;;;;;;;3.00;1.50;;;16.50;78.20;;;;;;10445844;28;20060;-80
2022/01/10 00:39:54;;;;;;;3.35;1.48;;;16.50;78.20;;;;;;10456347;28;20075;-80
2022/01/10 00:44:57;;;;;;;3.67;1.45;;;16.50;78.20;;;;;;10456152;28;20106;-80
2022/01/10 00:49:59;;;;;;;3.45;1.70;;;16.50;78.20;;;;;;10441019;28;20551;-79
2022/01/10 00:55:00;;;;;;;3.50;1.50;;;16.50;78.20;;;;;;10449081;28;20489;-79
2022/01/10 01:00:02;;;;;;;3.05;1.70;;;16.50;78.20;;;;;;10453984;28;20048;-79
2022/01/10 01:05:05;;;;;;;2.83;1.40;;;16.50;78.20;;;;;;10454124;28;20048;-80
2022/01/10 01:10:25;;;;;;;3.05;1.33;;;16.50;78.20;;;;;;10436672;28;20041;-79
2022/01/10 01:15:31;;;;;;;2.80;1.38;;;16.50;78.10;;;;;;10449102;28;20056;-80
2022/01/10 01:20:43;;;;;;;2.65;1.40;;;16.60;78.20;;;;;;10453915;28;20053;-79
2022/01/10 01:25:44;;;;;;;2.58;1.55;;;16.50;78.10;;;;;;10450107;28;20128;-80
2022/01/10 01:30:46;;;;;;;2.88;1.55;;;16.50;78.10;;;;;;10454216;28;20041;-80
2022/01/10 01:35:47;;;;;;;2.40;1.40;;;16.50;78.10;;;;;;10453192;28;20048;-80
2022/01/10 01:40:55;;;;;;;3.53;1.45;;;16.50;78.20;;;;;;10453052;28;20048;-80
2022/01/10 01:45:56;;;;;;;3.03;1.45;;;16.50;78.20;;;;;;10448246;28;20049;-80
2022/01/10 01:50:58;;;;;;;2.40;1.40;;;16.50;78.20;;;;;;10448024;28;20041;-80
2022/01/10 01:55:59;;;;;;;3.20;1.63;;;16.50;78.10;;;;;;10452411;28;20612;-80
2022/01/10 02:01:01;;;;;;;2.70;1.38;;;16.50;78.10;;;;;;10443535;28;20040;-80
2022/01/10 02:06:02;;;;;;;2.63;1.30;;;16.50;78.10;;;;;;10453124;28;20053;-80
2022/01/10 02:11:04;;;;;;;3.13;1.38;;;16.50;78.10;;;;;;10451783;28;20041;-80
2022/01/10 02:16:08;;;;;;;2.67;1.30;;;16.50;78.10;;;;;;10449239;28;20065;-80
2022/01/10 02:21:10;;;;;;;2.13;1.35;;;16.50;78.10;;;;;;10446722;28;20049;-80
2022/01/10 02:26:11;;;;;;;2.55;1.40;;;16.50;78.10;;;;;;10452385;28;20041;-81
2022/01/10 02:31:14;;;;;;;3.33;1.50;;;16.50;78.10;;;;;;10450766;28;20045;-80
2022/01/10 02:36:21;;;;;;;2.85;1.35;;;16.50;78.00;;;;;;10427674;28;20440;-80
2022/01/10 02:41:22;;;;;;;2.75;1.48;;;16.50;78.00;;;;;;10452224;28;20409;-81
2022/01/10 02:46:24;;;;;;;2.90;1.48;;;16.50;78.00;;;;;;10443836;28;20053;-80
2022/01/10 02:51:25;;;;;;;2.53;1.30;;;16.40;77.90;;;;;;10447651;28;20049;-81
2022/01/10 02:56:27;;;;;;;2.33;1.20;;;16.40;78.00;;;;;;10450283;28;20048;-80
2022/01/10 03:01:28;;;;;;;2.20;1.20;;;16.40;77.90;;;;;;10450385;28;20110;-80
2022/01/10 03:06:30;;;;;;;2.55;1.30;;;16.50;77.90;;;;;;10451770;28;20084;-80
2022/01/10 03:11:31;;;;;;;1.63;1.02;;;16.50;77.90;;;;;;10448533;28;20048;-80
2022/01/10 03:16:33;;;;;;;2.38;1.30;;;16.40;78.40;;;;;;10451237;28;20061;-80
2022/01/10 03:21:35;;;;;;;3.00;1.27;;;16.40;77.90;;;;;;10450256;28;20044;-80
2022/01/10 03:26:37;;;;;;;2.88;1.27;;;16.40;77.80;;;;;;10445131;28;20041;-80
2022/01/10 03:31:38;;;;;;;1.70;1.10;;;16.40;77.80;;;;;;10450815;28;20045;-80
2022/01/10 03:36:40;;;;;;;2.38;1.10;;;16.40;77.70;;;;;;10450282;28;20686;-80
2022/01/10 03:41:41;;;;;;;3.00;1.52;;;16.40;77.70;;;;;;10441699;28;20494;-80
2022/01/10 03:46:43;;;;;;;2.60;1.30;;;16.40;77.80;;;;;;10430731;28;20482;-80
2022/01/10 03:51:44;;;;;;;2.85;1.30;;;16.40;77.70;;;;;;10450264;28;20041;-80
2022/01/10 03:56:47;;;;;;;2.00;1.00;;;16.40;77.70;;;;;;10452535;28;20052;-80
2022/01/10 04:01:50;;;;;;;2.33;1.20;;;16.40;77.60;;;;;;10449564;28;20497;-80
2022/01/10 04:06:52;;;;;;;2.78;1.30;;;16.50;77.60;;;;;;10458033;28;20043;-80
2022/01/10 04:11:53;;;;;;;2.70;1.20;;;16.50;77.60;;;;;;10455182;28;20425;-80
2022/01/10 04:16:55;;;;;;;2.45;1.13;;;16.40;77.50;;;;;;10444274;28;20045;-80
2022/01/10 04:21:56;;;;;;;2.63;1.10;;;16.40;77.50;;;;;;10456993;28;20036;-80
2022/01/10 04:26:58;;;;;;;2.78;1.17;;;16.40;77.50;;;;;;10456985;28;20040;-80
2022/01/10 04:32:00;;;;;;;2.45;1.20;;;16.40;77.50;;;;;;10453233;28;20212;-80
2022/01/10 04:37:02;;;;;;;2.88;1.27;;;16.40;77.40;;;;;;10447135;28;20124;-80
2022/01/10 04:42:03;;;;;;;2.40;1.40;;;16.50;77.40;;;;;;10420381;28;20529;-80
2022/01/10 04:47:04;;;;;;;2.63;1.30;;;16.50;77.40;;;;;;10426626;28;20468;-79
2022/01/10 04:52:06;;;;;;;2.58;1.50;;;16.50;77.30;;;;;;10446790;28;20052;-80
2022/01/10 04:57:07;;;;;;;2.75;1.23;;;16.50;77.30;;;;;;10455082;28;20057;-80
2022/01/10 05:02:10;;;;;;;2.75;1.30;;;16.50;77.30;;;;;;10455111;28;20099;-80
2022/01/10 05:07:11;;;;;;;2.75;1.10;;;16.50;77.20;;;;;;10449196;28;20051;-80
2022/01/10 05:12:13;;;;;;;2.28;1.23;;;16.50;77.20;;;;;;10454645;28;20048;-80
2022/01/10 05:17:15;;;;;;;2.65;1.23;;;16.50;77.20;;;;;;10453508;28;20445;-79
2022/01/10 05:22:17;;;;;;;2.20;1.40;;;16.50;77.20;;;;;;10454799;28;20074;-79
2022/01/10 05:27:18;;;;;;;2.53;1.27;;;16.50;77.10;;;;;;10446504;28;20049;-79
2022/01/10 05:32:20;;;;;;;2.35;1.30;;;16.50;77.10;;;;;;10452291;28;20052;-79
2022/01/10 05:37:21;;;;;;;3.15;1.30;;;16.50;77.10;;;;;;10454786;28;20123;-79
2022/01/10 05:42:22;;;;;;;2.10;1.20;;;16.50;77.00;;;;;;10442835;28;20049;-77
2022/01/10 05:47:25;;;;;;;2.05;1.15;;;16.40;77.00;;;;;;10451690;28;20045;-79
2022/01/10 05:52:27;;;;;;;2.53;1.17;;;16.50;77.00;;;;;;10453017;28;20041;-78
2022/01/10 05:57:28;;;;;;;2.97;1.20;;;16.50;77.00;;;;;;10447394;28;20050;-79
2022/01/10 06:02:30;;;;;;;2.53;1.40;;;16.50;77.00;;;;;;10452315;28;20045;-79
2022/01/10 06:07:31;;;;;;;4.57;1.83;;;16.40;77.00;;;;;;10453146;28;20044;-79
2022/01/10 06:12:33;;;;;;;3.20;1.42;;;16.40;76.90;;;;;;10452652;28;20052;-79
2022/01/10 06:17:34;;;;;;;3.33;1.70;;;16.40;77.00;;;;;;10445475;28;20057;-75
2022/01/10 06:22:36;;;;;;;2.97;1.42;;;16.40;77.10;;;;;;10452335;28;20490;-77
